Time;durP1;ratioP1;P1;durP2;ratioP2;P2;SDS_P1;SDS_P2;PMS_P1;PMS_P2;Temp;Humidity;BMP_temperature;BMP_pressure;BME280_temperature;BME280_humidity;BME280_pressure;Samples;Min_cycle;Max_cycle;Signal;HPM_P1;HPM_P2
2021/10/20 00:02:27;;;;;;;27.98;19.02;;;;;;;15.64;65.67;102363.97;5011182;28;102472;-84
2021/10/20 00:04:55;;;;;;;26.60;18.77;;;;;;;15.63;65.68;102360.41;5000073;28;102206;-83
2021/10/20 00:07:21;;;;;;;25.25;18.40;;;;;;;15.63;65.49;102363.13;5013496;28;102662;-84
2021/10/20 00:09:48;;;;;;;27.17;18.58;;;;;;;15.63;65.31;102357.66;5010461;28;102836;-84
2021/10/20 00:12:15;;;;;;;28.50;19.38;;;;;;;15.63;65.55;102354.91;5000124;28;102369;-84
2021/10/20 00:14:42;;;;;;;25.55;18.73;;;;;;;15.63;65.33;102360.41;5006992;28;102199;-87
2021/10/20 00:17:09;;;;;;;24.55;18.40;;;;;;;15.63;65.12;102360.41;5014308;28;102232;-87
2021/10/20 00:19:36;;;;;;;25.80;18.45;;;;;;;15.63;65.32;102357.66;5011196;28;102458;-87
2021/10/20 00:22:03;;;;;;;29.10;19.08;;;;;;;15.63;65.05;102360.41;5013207;28;102378;-86
2021/10/20 00:24:30;;;;;;;24.80;18.40;;;;;;;15.64;65.71;102358.47;5007962;28;102188;-86
2021/10/20 00:26:56;;;;;;;26.35;18.50;;;;;;;15.63;65.64;102354.91;5008441;28;102444;-87
2021/10/20 00:29:22;;;;;;;23.75;17.50;;;;;;;15.63;65.54;102349.41;5012713;28;103054;-87
2021/10/20 00:31:49;;;;;;;26.63;18.90;;;;;;;15.63;65.24;102357.66;5012549;28;102410;-83
2021/10/20 00:34:16;;;;;;;23.67;18.23;;;;;;;15.63;65.76;102360.41;5006645;28;102218;-83
2021/10/20 00:36:44;;;;;;;23.38;17.70;;;;;;;15.63;65.49;102348.59;5012604;28;102350;-83
2021/10/20 00:39:10;;;;;;;24.45;16.92;;;;;;;15.63;65.41;102346.66;5009568;28;104121;-83
2021/10/20 00:41:38;;;;;;;25.48;17.60;;;;;;;15.63;65.51;102349.41;5011882;28;103083;-82
2021/10/20 00:44:05;;;;;;;22.13;17.40;;;;;;;15.63;65.36;102349.41;5010506;28;102241;-83
2021/10/20 00:46:32;;;;;;;22.65;16.75;;;;;;;15.63;65.36;102351.34;5009267;28;102594;-82
2021/10/20 00:48:59;;;;;;;23.88;17.38;;;;;;;15.62;65.53;102347.78;5009276;28;103789;-83
2021/10/20 00:51:25;;;;;;;24.50;17.67;;;;;;;15.63;65.60;102348.59;5011143;28;102587;-84
2021/10/20 00:53:55;;;;;;;25.45;18.23;;;;;;;15.63;65.29;102354.09;5013823;28;102219;-86
2021/10/20 00:56:24;;;;;;;23.77;17.83;;;;;;;15.62;65.23;102353.25;5016003;28;102320;-86
2021/10/20 00:58:50;;;;;;;24.88;17.35;;;;;;;15.63;65.32;102348.59;5014284;28;104266;-87
2021/10/20 01:01:17;;;;;;;24.77;16.98;;;;;;;15.63;65.34;102341.19;5013428;28;102466;-86
2021/10/20 01:03:44;;;;;;;23.05;17.40;;;;;;;15.62;65.30;102338.72;5011440;28;105661;-86
2021/10/20 01:06:11;;;;;;;22.98;17.30;;;;;;;15.63;65.67;102340.38;5015115;28;102157;-86
2021/10/20 01:08:38;;;;;;;21.67;15.80;;;;;;;15.62;65.23;102342.28;5014398;28;104022;-86
2021/10/20 01:11:06;;;;;;;22.70;16.92;;;;;;;15.63;65.69;102348.59;5012909;28;102160;-83
2021/10/20 01:13:33;;;;;;;24.02;17.27;;;;;;;15.63;65.62;102351.34;5013923;28;102949;-84
2021/10/20 01:16:00;;;;;;;25.00;17.55;;;;;;;15.63;65.26;102343.09;5015728;28;102208;-84
2021/10/20 01:18:27;;;;;;;21.98;16.42;;;;;;;15.62;65.43;102342.28;5010541;28;102275;-83
2021/10/20 01:20:58;;;;;;;21.30;16.40;;;;;;;15.62;65.68;102336.78;5013406;28;102691;-83
2021/10/20 01:23:27;;;;;;;22.95;16.80;;;;;;;15.62;65.50;102345.03;5012292;28;102721;-83
2021/10/20 01:25:54;;;;;;;21.60;16.50;;;;;;;15.62;65.75;102346.94;5011234;28;102835;-84
2021/10/20 01:28:21;;;;;;;21.40;16.15;;;;;;;15.63;65.42;102343.94;5010992;28;103370;-83
2021/10/20 01:30:47;;;;;;;20.90;15.98;;;;;;;15.62;65.54;102331.31;5013259;28;102136;-83
2021/10/20 01:33:13;;;;;;;24.27;17.35;;;;;;;15.62;65.41;102335.97;5017542;28;102541;-83
2021/10/20 01:35:40;;;;;;;20.55;15.77;;;;;;;15.62;65.58;102333.22;5016363;28;102214;-83
2021/10/20 01:38:06;;;;;;;22.13;16.52;;;;;;;15.62;65.51;102342.28;5014388;28;102740;-84
2021/10/20 01:40:35;;;;;;;23.63;17.33;;;;;;;15.62;65.59;102339.53;5015909;28;102453;-84
2021/10/20 01:43:01;;;;;;;21.83;17.08;;;;;;;15.62;65.47;102341.47;5016881;28;102228;-84
2021/10/20 01:45:27;;;;;;;23.10;16.90;;;;;;;15.62;65.52;102336.78;5020649;28;102533;-83
2021/10/20 01:47:54;;;;;;;21.52;17.20;;;;;;;15.61;65.33;102329.66;5019054;28;102500;-83
2021/10/20 01:50:20;;;;;;;22.75;16.35;;;;;;;15.62;65.85;102325.81;5018878;28;102391;-82
2021/10/20 01:52:47;;;;;;;23.48;15.93;;;;;;;15.62;65.72;102328.56;5019806;28;102110;-83
2021/10/20 01:55:14;;;;;;;22.85;16.20;;;;;;;15.61;65.87;102326.91;5020048;28;102735;-84
2021/10/20 01:57:42;;;;;;;20.83;15.93;;;;;;;15.62;65.36;102335.97;5008718;28;102774;-84
2021/10/20 02:00:10;;;;;;;20.27;15.10;;;;;;;15.62;65.84;102335.97;5019405;28;103435;-84
2021/10/20 02:02:37;;;;;;;21.17;16.42;;;;;;;15.62;65.67;102341.47;5011470;28;102132;-83
2021/10/20 02:05:04;;;;;;;21.38;15.65;;;;;;;15.62;65.39;102342.28;5009278;28;102109;-86
2021/10/20 02:07:31;;;;;;;21.33;15.95;;;;;;;15.61;65.72;102337.91;5007541;28;103849;-84
2021/10/20 02:09:58;;;;;;;21.63;16.10;;;;;;;15.60;65.28;102338.97;5016206;28;102705;-82
2021/10/20 02:12:24;;;;;;;21.25;16.13;;;;;;;15.62;65.42;102330.47;5013946;28;102221;-82
2021/10/20 02:14:52;;;;;;;17.58;14.70;;;;;;;15.62;65.63;102327.75;5011515;28;102224;-83
2021/10/20 02:17:19;;;;;;;20.23;14.70;;;;;;;15.61;65.82;102329.66;5003690;28;102763;-83
2021/10/20 02:19:45;;;;;;;20.00;15.50;;;;;;;15.61;65.97;102324.19;5017146;28;102483;-84
2021/10/20 02:22:12;;;;;;;19.90;15.18;;;;;;;15.62;65.80;102322.25;5010959;28;102640;-84
2021/10/20 02:24:39;;;;;;;22.02;15.20;;;;;;;15.61;65.36;102313.19;4991701;28;102480;-86
2021/10/20 02:27:05;;;;;;;19.02;15.27;;;;;;;15.61;65.60;102307.72;5002898;28;103862;-84
2021/10/20 02:29:33;;;;;;;20.95;14.90;;;;;;;15.60;65.37;102306.03;5011368;28;102341;-83
2021/10/20 02:32:01;;;;;;;20.33;16.25;;;;;;;15.61;65.59;102307.72;5009880;28;102689;-83
2021/10/20 02:34:28;;;;;;;19.87;15.00;;;;;;;15.61;65.31;102318.69;5015463;28;102487;-83
2021/10/20 02:36:55;;;;;;;19.80;14.82;;;;;;;15.61;65.87;102324.19;5031149;28;102683;-83
2021/10/20 02:39:21;;;;;;;19.17;14.68;;;;;;;15.61;65.57;102323.31;5008176;28;102446;-83
2021/10/20 02:41:48;;;;;;;21.20;15.77;;;;;;;15.60;65.74;102322.50;5012564;28;102196;-83
2021/10/20 02:44:14;;;;;;;20.25;15.13;;;;;;;15.61;65.43;102324.19;5014625;28;102195;-83
2021/10/20 02:46:41;;;;;;;17.08;14.48;;;;;;;15.60;65.28;102319.75;5015392;28;104156;-83
2021/10/20 02:49:09;;;;;;;16.92;14.35;;;;;;;15.61;65.29;102323.31;5009021;28;102221;-83
2021/10/20 02:51:36;;;;;;;20.05;14.60;;;;;;;15.59;65.31;102315.38;5012309;28;102327;-82
2021/10/20 02:54:03;;;;;;;19.95;15.30;;;;;;;15.61;65.69;102315.94;5006188;28;102651;-83
2021/10/20 02:56:31;;;;;;;17.42;14.35;;;;;;;15.61;65.43;102323.31;5012432;28;104184;-83
2021/10/20 02:58:57;;;;;;;19.55;14.80;;;;;;;15.61;65.41;102323.31;5014117;28;102332;-83
2021/10/20 03:01:24;;;;;;;19.10;14.07;;;;;;;15.61;65.92;102323.31;5004918;28;102966;-83
2021/10/20 03:03:51;;;;;;;19.67;14.85;;;;;;;15.60;65.56;102319.75;5014248;28;102503;-84
2021/10/20 03:06:20;;;;;;;19.58;14.80;;;;;;;15.60;65.72;102321.69;5008674;28;103045;-85
2021/10/20 03:08:53;;;;;;;19.83;15.10;;;;;;;15.60;65.75;102327.16;5015935;28;102356;-85
2021/10/20 03:11:20;;;;;;;20.83;15.18;;;;;;;15.60;65.48;102325.25;5010002;28;102364;-85
2021/10/20 03:13:47;;;;;;;18.42;13.88;;;;;;;15.60;65.83;102317.00;5014807;28;102623;-86
2021/10/20 03:16:14;;;;;;;17.80;13.77;;;;;;;15.60;65.44;102317.00;5013810;28;103565;-86
2021/10/20 03:18:40;;;;;;;18.67;13.80;;;;;;;15.60;65.81;102322.50;5011412;28;102229;-87
2021/10/20 03:21:07;;;;;;;19.33;14.07;;;;;;;15.60;65.49;102316.19;5010394;28;103215;-87
2021/10/20 03:23:35;;;;;;;18.05;13.93;;;;;;;15.60;65.79;102310.69;5014770;28;102593;-83
2021/10/20 03:26:01;;;;;;;17.77;13.77;;;;;;;15.60;65.39;102324.41;5012621;28;104225;-85
2021/10/20 03:28:28;;;;;;;17.02;13.27;;;;;;;15.59;65.82;102320.84;5013077;28;102143;-85
2021/10/20 03:30:54;;;;;;;18.65;14.07;;;;;;;15.59;65.70;102331.84;5006850;28;102470;-85
2021/10/20 03:33:21;;;;;;;16.30;13.38;;;;;;;15.59;65.63;102331.84;5012698;28;102800;-86
2021/10/20 03:35:48;;;;;;;20.45;14.32;;;;;;;15.59;65.92;102331.84;5014473;28;104314;-87
2021/10/20 03:38:14;;;;;;;18.00;13.73;;;;;;;15.59;65.76;102331.00;5013757;28;102095;-87
2021/10/20 03:40:42;;;;;;;16.58;13.32;;;;;;;15.60;65.84;102322.50;5010115;28;102603;-86
2021/10/20 03:43:09;;;;;;;16.95;13.23;;;;;;;15.59;65.52;102323.59;5007944;28;102348;-85
2021/10/20 03:45:35;;;;;;;17.13;13.40;;;;;;;15.59;65.46;102325.53;5010085;28;102540;-85
2021/10/20 03:48:04;;;;;;;15.65;13.00;;;;;;;15.59;65.59;102337.31;5013353;28;102435;-85
2021/10/20 03:50:31;;;;;;;19.08;13.38;;;;;;;15.59;65.75;102331.84;5010900;28;102199;-85
2021/10/20 03:52:57;;;;;;;15.27;12.75;;;;;;;15.58;65.76;102330.19;5011122;28;102299;-84
2021/10/20 03:55:24;;;;;;;20.80;14.57;;;;;;;15.58;65.52;102324.69;5008495;28;102729;-85
2021/10/20 03:57:51;;;;;;;17.42;13.65;;;;;;;15.57;65.41;102323.03;5013485;28;102081;-84
2021/10/20 04:00:18;;;;;;;15.88;13.07;;;;;;;15.59;65.58;102325.53;5012475;28;102399;-84
2021/10/20 04:02:46;;;;;;;16.88;12.90;;;;;;;15.59;65.63;102331.00;5011409;28;102583;-85
2021/10/20 04:05:14;;;;;;;16.30;12.85;;;;;;;15.58;65.75;102330.19;5014573;28;103825;-85
2021/10/20 04:07:41;;;;;;;16.40;13.18;;;;;;;15.59;65.39;102336.50;5012127;28;102579;-85
2021/10/20 04:10:11;;;;;;;17.20;13.80;;;;;;;15.59;65.71;102340.06;5013346;28;102300;-85
2021/10/20 04:12:38;;;;;;;16.40;12.57;;;;;;;15.59;65.68;102329.09;5013381;28;103727;-85
2021/10/20 04:15:07;;;;;;;16.92;13.13;;;;;;;15.58;65.54;102329.38;5011913;28;102732;-83
2021/10/20 04:17:35;;;;;;;17.70;12.95;;;;;;;15.59;65.56;102334.56;5009063;28;102576;-83
2021/10/20 04:20:02;;;;;;;14.90;12.02;;;;;;;15.58;65.48;102338.41;5011099;28;102492;-85
2021/10/20 04:22:28;;;;;;;15.98;12.40;;;;;;;15.58;65.62;102335.69;5014028;28;102386;-86
2021/10/20 04:24:55;;;;;;;17.40;13.13;;;;;;;15.59;65.92;102331.84;5015082;28;103983;-86
2021/10/20 04:27:21;;;;;;;17.00;12.63;;;;;;;15.58;65.25;102329.38;5014791;28;102182;-86
2021/10/20 04:29:48;;;;;;;15.70;12.95;;;;;;;15.58;65.58;102332.94;5014254;28;102401;-86
2021/10/20 04:32:16;;;;;;;16.27;13.30;;;;;;;15.57;65.80;102333.19;5016429;28;102171;-86
2021/10/20 04:34:42;;;;;;;16.13;12.70;;;;;;;15.58;65.53;102332.13;5012903;28;103765;-85
2021/10/20 04:37:09;;;;;;;14.93;12.63;;;;;;;15.57;65.63;102323.03;5009648;28;103168;-85
2021/10/20 04:39:35;;;;;;;15.68;12.35;;;;;;;15.57;65.49;102323.03;5017567;28;102022;-84
2021/10/20 04:42:02;;;;;;;16.55;12.13;;;;;;;15.57;65.82;102317.53;5013539;28;102255;-85
2021/10/20 04:44:29;;;;;;;15.57;12.15;;;;;;;15.57;65.82;102320.28;5016770;28;102716;-83
2021/10/20 04:46:55;;;;;;;15.68;12.07;;;;;;;15.58;65.73;102319.22;5007925;28;102306;-83
2021/10/20 04:49:23;;;;;;;14.60;11.98;;;;;;;15.57;65.71;102317.53;5015578;28;102908;-82
2021/10/20 04:51:50;;;;;;;15.20;11.23;;;;;;;15.57;65.88;102327.69;5010386;28;102432;-82
2021/10/20 04:54:16;;;;;;;17.00;12.93;;;;;;;15.58;65.69;102330.19;5013263;28;104058;-82
2021/10/20 04:56:42;;;;;;;15.18;12.32;;;;;;;15.57;65.84;102328.53;5002652;27;102377;-87
2021/10/20 04:59:09;;;;;;;14.73;12.25;;;;;;;15.56;65.66;102324.13;5011295;28;102604;-83
2021/10/20 05:01:36;;;;;;;16.23;13.15;;;;;;;15.57;65.88;102324.94;5012403;28;102471;-83
2021/10/20 05:04:03;;;;;;;14.73;12.55;;;;;;;15.57;65.98;102333.19;5015451;28;102722;-82
2021/10/20 05:06:31;;;;;;;15.00;11.88;;;;;;;15.58;65.61;102332.94;5010767;28;102578;-82
2021/10/20 05:08:57;;;;;;;16.58;11.80;;;;;;;15.57;65.97;102325.78;5006808;28;102295;-82
2021/10/20 05:11:24;;;;;;;12.63;10.82;;;;;;;15.58;65.56;102323.88;5016584;28;102395;-83
2021/10/20 05:13:50;;;;;;;14.48;12.00;;;;;;;15.58;65.91;102334.84;5010214;28;102383;-83
2021/10/20 05:16:17;;;;;;;17.98;12.60;;;;;;;15.58;66.12;102340.34;5009810;28;102272;-84
2021/10/20 05:18:43;;;;;;;16.33;12.27;;;;;;;15.58;65.98;102351.31;5012112;28;102300;-82
2021/10/20 05:21:10;;;;;;;16.02;12.07;;;;;;;15.58;65.76;102357.63;5013082;28;102428;-83
2021/10/20 05:23:38;;;;;;;16.35;11.57;;;;;;;15.59;65.66;102358.47;5012966;28;102968;-84
2021/10/20 05:26:04;;;;;;;14.20;11.35;;;;;;;15.58;65.58;102363.13;5013370;28;102246;-82
2021/10/20 05:28:31;;;;;;;15.50;11.73;;;;;;;15.57;65.80;102366.94;5011071;28;102026;-83
2021/10/20 05:30:58;;;;;;;12.75;11.13;;;;;;;15.58;65.77;102374.09;5016443;28;102481;-83
2021/10/20 05:33:24;;;;;;;14.38;12.15;;;;;;;15.58;65.92;102376.84;5006814;28;104205;-83
2021/10/20 05:35:51;;;;;;;15.07;11.85;;;;;;;15.58;66.17;102379.59;5017278;28;102446;-83
2021/10/20 05:38:17;;;;;;;15.73;11.50;;;;;;;15.59;65.76;102374.91;5005713;27;102243;-83
2021/10/20 05:40:45;;;;;;;14.73;11.68;;;;;;;15.58;65.95;102368.63;5005817;28;102346;-83
2021/10/20 05:43:12;;;;;;;14.40;12.23;;;;;;;15.59;65.95;102380.41;5015388;28;102755;-83
2021/10/20 05:45:39;;;;;;;14.27;11.98;;;;;;;15.59;65.76;102375.75;5013006;28;102821;-83
2021/10/20 05:48:05;;;;;;;14.15;12.07;;;;;;;15.59;65.73;102381.22;5012671;28;102191;-82
2021/10/20 05:50:32;;;;;;;13.88;11.60;;;;;;;15.59;66.00;102386.72;5014464;28;102417;-83
2021/10/20 05:52:59;;;;;;;14.32;11.90;;;;;;;15.59;65.72;102386.72;5010803;28;102732;-83
2021/10/20 05:55:25;;;;;;;15.07;11.93;;;;;;;15.59;65.84;102392.22;5013336;28;102473;-83
2021/10/20 05:57:53;;;;;;;13.70;11.55;;;;;;;15.59;66.03;102385.91;5010041;28;102623;-85
2021/10/20 06:00:19;;;;;;;13.82;11.55;;;;;;;15.59;65.75;102385.91;5014243;28;102173;-84
2021/10/20 06:02:47;;;;;;;15.00;12.00;;;;;;;15.60;65.92;102387.53;5014684;28;103885;-85
2021/10/20 06:05:13;;;;;;;13.20;11.20;;;;;;;15.59;66.13;102394.94;5016608;28;102445;-84
2021/10/20 06:07:41;;;;;;;14.82;11.98;;;;;;;15.60;66.04;102393.03;5010842;28;102514;-84
2021/10/20 06:10:08;;;;;;;16.23;12.20;;;;;;;15.59;65.78;102392.22;5017384;28;102668;-85
2021/10/20 06:12:35;;;;;;;14.18;11.45;;;;;;;15.59;65.66;102397.69;5008929;28;102582;-84
2021/10/20 06:15:06;;;;;;;13.00;11.57;;;;;;;15.59;66.09;102388.66;5017410;28;102204;-82
2021/10/20 06:17:33;;;;;;;13.30;11.38;;;;;;;15.60;65.71;102396.59;5015011;28;102125;-83
2021/10/20 06:19:59;;;;;;;14.63;11.90;;;;;;;15.60;66.16;102393.84;5016088;28;105884;-82
2021/10/20 06:22:26;;;;;;;14.65;12.20;;;;;;;15.60;65.83;102388.38;5005929;28;103237;-82
2021/10/20 06:24:53;;;;;;;15.25;10.68;;;;;;;15.59;65.99;102392.22;5011515;28;102107;-82
2021/10/20 06:27:19;;;;;;;12.90;10.82;;;;;;;15.60;65.75;102393.84;5014610;28;102436;-87
2021/10/20 06:29:46;;;;;;;14.23;11.57;;;;;;;15.60;65.65;102393.84;5008608;28;102221;-86
2021/10/20 06:32:14;;;;;;;13.98;11.55;;;;;;;15.60;65.83;102393.84;5010663;28;104172;-84
2021/10/20 06:34:40;;;;;;;14.85;11.38;;;;;;;15.60;66.12;102388.38;5011518;28;102454;-86
2021/10/20 06:37:07;;;;;;;14.63;12.18;;;;;;;15.61;65.98;102394.69;5019428;28;102431;-86
2021/10/20 06:39:34;;;;;;;13.98;11.32;;;;;;;15.61;66.20;102398.28;5016360;28;102812;-86
2021/10/20 06:42:00;;;;;;;16.35;12.00;;;;;;;15.61;65.79;102390.03;5008231;28;102701;-86
2021/10/20 06:44:27;;;;;;;16.00;12.40;;;;;;;15.61;66.17;102392.78;5008723;28;102430;-86
2021/10/20 06:46:54;;;;;;;15.20;11.23;;;;;;;15.62;65.95;102394.44;5011144;28;102506;-85
2021/10/20 06:49:22;;;;;;;15.13;11.40;;;;;;;15.61;66.24;102395.53;5009188;28;102178;-86
2021/10/20 06:51:48;;;;;;;15.50;12.10;;;;;;;15.63;66.14;102398.00;5007027;28;104689;-86
2021/10/20 06:54:18;;;;;;;15.68;11.93;;;;;;;15.63;66.51;102393.31;5007750;28;102594;-86
2021/10/20 06:56:45;;;;;;;14.27;11.52;;;;;;;15.65;66.34;102405.94;5009310;28;102797;-82
2021/10/20 06:59:12;;;;;;;14.68;11.57;;;;;;;15.65;65.94;102400.47;5014475;27;102585;-82
2021/10/20 07:01:38;;;;;;;15.00;11.05;;;;;;;15.66;66.12;102402.16;5011444;28;104145;-82
2021/10/20 07:04:05;;;;;;;15.90;12.32;;;;;;;15.66;66.22;102391.19;5010769;28;102560;-82
2021/10/20 07:06:33;;;;;;;12.98;11.18;;;;;;;15.66;66.17;102408.47;5005704;28;102396;-81
2021/10/20 07:09:01;;;;;;;13.77;11.65;;;;;;;15.67;66.13;102409.31;5011049;28;102193;-82
2021/10/20 07:11:27;;;;;;;14.63;11.52;;;;;;;15.67;66.24;102415.63;5010978;28;104085;-82
2021/10/20 07:13:53;;;;;;;14.20;12.23;;;;;;;15.67;66.33;102409.31;5015066;28;102384;-82
2021/10/20 07:16:20;;;;;;;15.70;11.82;;;;;;;15.67;66.08;102412.03;5006453;28;102309;-81
2021/10/20 07:18:47;;;;;;;14.93;11.27;;;;;;;15.68;66.40;102405.47;5008555;28;102457;-82
2021/10/20 07:21:14;;;;;;;14.23;11.80;;;;;;;15.68;66.25;102405.47;5010453;28;104712;-81
2021/10/20 07:23:42;;;;;;;15.27;12.02;;;;;;;15.68;66.07;102405.47;5007036;28;102727;-82
2021/10/20 07:26:08;;;;;;;14.85;12.57;;;;;;;15.69;66.51;102396.16;5004387;28;102141;-81
2021/10/20 07:28:35;;;;;;;17.52;12.25;;;;;;;15.69;66.49;102398.91;5010472;28;102534;-81
2021/10/20 07:31:01;;;;;;;17.40;13.45;;;;;;;15.69;66.47;102407.97;5009159;28;104098;-82
2021/10/20 07:33:28;;;;;;;16.20;11.98;;;;;;;15.69;66.49;102390.66;5008552;28;102192;-82
2021/10/20 07:35:54;;;;;;;15.90;12.55;;;;;;;15.69;66.32;102396.16;5012097;28;102503;-85
2021/10/20 07:38:22;;;;;;;14.23;11.98;;;;;;;15.69;66.33;102393.41;5013225;28;102437;-85
2021/10/20 07:40:50;;;;;;;15.73;12.27;;;;;;;15.68;66.30;102400.78;5006928;28;104101;-85
2021/10/20 07:43:16;;;;;;;15.32;12.18;;;;;;;15.70;66.37;102392.31;5013651;28;102460;-84
2021/10/20 07:45:43;;;;;;;14.70;12.05;;;;;;;15.69;66.09;102386.00;5013560;28;102184;-84
2021/10/20 07:48:09;;;;;;;15.63;13.15;;;;;;;15.68;66.18;102387.06;5008226;28;102517;-85
2021/10/20 07:50:36;;;;;;;14.07;12.52;;;;;;;15.70;66.57;102392.31;5008054;28;103721;-84
2021/10/20 07:53:03;;;;;;;17.58;13.18;;;;;;;15.70;66.31;102387.66;5008008;28;102394;-86
2021/10/20 07:55:32;;;;;;;14.82;12.85;;;;;;;15.69;66.17;102386.00;5008414;28;103117;-86
2021/10/20 07:58:00;;;;;;;16.38;12.98;;;;;;;15.69;66.58;102380.50;5014673;28;102194;-85
2021/10/20 08:00:27;;;;;;;16.67;12.80;;;;;;;15.70;66.39;102384.06;5002827;28;104400;-86
2021/10/20 08:02:54;;;;;;;15.98;12.32;;;;;;;15.70;66.48;102375.84;5008887;28;102582;-86
2021/10/20 08:05:21;;;;;;;15.93;12.68;;;;;;;15.70;66.09;102386.81;5023102;28;103233;-86
2021/10/20 08:07:48;;;;;;;18.58;15.35;;;;;;;15.70;66.57;102381.34;5008728;28;102682;-85
2021/10/20 08:10:18;;;;;;;20.00;15.50;;;;;;;15.69;66.56;102385.19;5002106;28;106273;-84
2021/10/20 08:12:45;;;;;;;17.52;14.63;;;;;;;15.69;66.46;102376.94;5008889;28;102275;-85
2021/10/20 08:15:15;;;;;;;18.65;14.75;;;;;;;15.68;66.41;102373.34;5011586;28;102504;-85
2021/10/20 08:17:43;;;;;;;20.75;15.75;;;;;;;15.68;66.13;102367.03;5004076;28;102718;-85
2021/10/20 08:20:11;;;;;;;19.02;15.00;;;;;;;15.67;65.74;102368.13;5011511;28;103671;-85
2021/10/20 08:22:38;;;;;;;19.13;15.13;;;;;;;15.66;65.78;102370.06;4986761;28;102548;-84
2021/10/20 08:25:06;;;;;;;17.77;14.15;;;;;;;15.66;65.90;102367.31;4991015;28;102375;-85
2021/10/20 08:27:35;;;;;;;16.73;13.65;;;;;;;15.66;65.74;102361.81;4992406;28;103154;-85
2021/10/20 08:30:02;;;;;;;21.35;15.32;;;;;;;15.68;65.90;102369.78;5010093;28;102716;-85
2021/10/20 08:32:30;;;;;;;20.00;14.70;;;;;;;15.66;65.64;102361.81;5011120;28;102602;-84
2021/10/20 08:34:56;;;;;;;17.00;14.52;;;;;;;15.67;66.07;102365.38;5008396;28;102457;-85
2021/10/20 08:37:23;;;;;;;19.40;14.60;;;;;;;15.67;65.63;102365.38;5013488;28;102240;-85
2021/10/20 08:39:50;;;;;;;19.73;14.68;;;;;;;15.66;65.64;102359.09;5011316;28;102538;-85
2021/10/20 08:42:16;;;;;;;18.58;14.52;;;;;;;15.67;65.80;102355.22;5011964;28;102166;-85
2021/10/20 08:44:43;;;;;;;19.67;14.32;;;;;;;15.67;65.42;102355.22;5007379;28;102794;-84
2021/10/20 08:47:12;;;;;;;17.13;14.45;;;;;;;15.68;65.62;102356.06;5007388;28;102270;-86
2021/10/20 08:49:42;;;;;;;19.02;14.93;;;;;;;15.68;65.38;102342.34;5006491;28;103876;-85
2021/10/20 08:52:10;;;;;;;16.58;13.38;;;;;;;15.69;65.31;102342.09;5003247;28;102480;-84
2021/10/20 08:54:37;;;;;;;18.13;14.10;;;;;;;15.69;65.53;102341.25;5002483;28;102420;-84
2021/10/20 08:57:04;;;;;;;16.08;13.35;;;;;;;15.70;65.48;102332.75;5010214;27;102104;-84
2021/10/20 08:59:32;;;;;;;18.00;14.37;;;;;;;15.70;65.58;102332.75;5009526;28;102756;-84
2021/10/20 09:02:02;;;;;;;17.02;14.18;;;;;;;15.72;65.26;102340.69;5010408;28;102234;-85
2021/10/20 09:04:29;;;;;;;16.88;13.38;;;;;;;15.72;65.33;102338.78;5004797;28;102690;-84
2021/10/20 09:07:00;;;;;;;17.48;13.75;;;;;;;15.71;65.42;102337.13;5009461;28;102616;-84
2021/10/20 09:09:31;;;;;;;19.08;14.10;;;;;;;15.73;65.25;102334.16;5010527;28;103871;-84
2021/10/20 09:12:00;;;;;;;21.27;14.07;;;;;;;15.72;64.74;102332.47;5016204;28;102509;-84
2021/10/20 09:14:26;;;;;;;15.88;13.75;;;;;;;15.73;64.85;102332.22;5011785;28;102937;-84
2021/10/20 09:16:53;;;;;;;15.30;13.20;;;;;;;15.74;64.96;102327.56;5009414;28;102669;-84
2021/10/20 09:19:24;;;;;;;19.98;13.27;;;;;;;15.75;64.76;102323.69;5012146;28;102821;-85
2021/10/20 09:21:55;;;;;;;16.55;12.65;;;;;;;15.74;65.23;102316.56;4996908;28;102978;-85
2021/10/20 09:24:23;;;;;;;19.20;13.18;;;;;;;15.75;65.13;102323.69;5000974;28;102376;-84
2021/10/20 09:26:51;;;;;;;13.43;11.90;;;;;;;15.76;64.83;102308.88;5009342;28;102747;-82
2021/10/20 09:29:25;;;;;;;19.13;13.23;;;;;;;15.75;64.52;102308.06;5009467;28;102713;-84
2021/10/20 09:31:52;;;;;;;14.23;11.60;;;;;;;15.75;65.07;102305.31;5008752;28;103521;-87
2021/10/20 09:34:18;;;;;;;15.40;12.18;;;;;;;15.75;64.49;102307.22;5016500;28;102351;-86
2021/10/20 09:36:45;;;;;;;13.70;11.60;;;;;;;15.75;64.62;102302.56;5014427;28;102210;-86
2021/10/20 09:39:13;;;;;;;15.48;12.63;;;;;;;15.75;64.75;102288.84;5016533;28;102471;-86
2021/10/20 09:41:41;;;;;;;14.05;11.48;;;;;;;15.76;64.81;102295.16;5010091;28;102127;-86
2021/10/20 09:44:09;;;;;;;15.23;11.63;;;;;;;15.76;64.50;102289.66;5014857;28;102379;-86
2021/10/20 09:46:38;;;;;;;15.23;11.73;;;;;;;15.76;64.39;102286.91;5013150;28;102265;-84
2021/10/20 09:49:14;;;;;;;15.70;12.38;;;;;;;15.77;64.40;102291.34;5014295;28;102868;-85
2021/10/20 09:51:41;;;;;;;17.70;12.23;;;;;;;15.77;64.39;102288.59;5009657;28;102593;-85
2021/10/20 09:54:22;;;;;;;14.90;12.52;;;;;;;15.76;64.48;102275.94;5013342;28;102179;-85
2021/10/20 09:56:54;;;;;;;15.75;12.48;;;;;;;15.77;64.32;102269.38;5015233;28;102260;-84
2021/10/20 09:59:21;;;;;;;14.50;11.55;;;;;;;15.77;64.38;102277.63;5014999;28;103777;-84
2021/10/20 10:01:48;;;;;;;15.77;11.65;;;;;;;15.76;64.07;102262.22;5010806;28;102146;-85
2021/10/20 10:04:15;;;;;;;15.85;11.80;;;;;;;15.77;64.08;102267.47;5006377;28;102345;-86
2021/10/20 10:06:42;;;;;;;13.50;11.77;;;;;;;15.77;64.10;102272.13;4999274;28;103300;-86
2021/10/20 10:09:12;;;;;;;13.80;11.68;;;;;;;15.77;64.41;102263.88;5010691;28;103896;-86
2021/10/20 10:11:43;;;;;;;15.00;11.48;;;;;;;15.76;64.11;102259.47;4987250;28;102646;-86
2021/10/20 10:14:18;;;;;;;15.50;10.95;;;;;;;15.77;64.03;102259.22;4989683;28;102598;-86
2021/10/20 10:16:46;;;;;;;13.98;11.18;;;;;;;15.78;63.94;102254.56;4990204;28;102589;-86
2021/10/20 10:19:13;;;;;;;13.33;11.70;;;;;;;15.78;64.18;102251.81;4985985;28;104294;-85
2021/10/20 10:21:42;;;;;;;12.70;11.10;;;;;;;15.78;63.83;102251.81;4998145;28;102046;-84
2021/10/20 10:24:12;;;;;;;13.60;11.55;;;;;;;15.78;63.82;102254.56;5006518;28;104618;-86
2021/10/20 10:26:58;;;;;;;13.23;10.80;;;;;;;15.77;63.95;102250.16;5013770;28;102258;-85
2021/10/20 10:29:26;;;;;;;14.13;11.40;;;;;;;15.78;64.09;102251.81;5014156;28;102956;-84
2021/10/20 10:31:53;;;;;;;11.88;9.93;;;;;;;15.78;64.01;102246.31;5009071;28;102437;-85
2021/10/20 10:34:24;;;;;;;12.80;10.77;;;;;;;15.77;63.70;102240.00;5009930;28;102545;-86
2021/10/20 10:36:52;;;;;;;13.70;11.00;;;;;;;15.77;63.90;102242.75;5009128;28;102272;-86
2021/10/20 10:39:19;;;;;;;11.80;10.45;;;;;;;15.79;63.72;102231.50;5009624;28;102725;-85
2021/10/20 10:41:48;;;;;;;15.00;11.07;;;;;;;15.78;63.98;102235.34;5008831;28;105332;-84
2021/10/20 10:44:17;;;;;;;12.70;10.70;;;;;;;15.78;63.43;102238.91;5014537;28;102490;-85
2021/10/20 10:47:05;;;;;;;12.68;10.48;;;;;;;15.78;63.56;102229.84;5007365;28;102464;-85
2021/10/20 10:49:34;;;;;;;14.48;11.15;;;;;;;15.79;63.53;102231.50;5014402;28;103855;-85
2021/10/20 10:52:33;;;;;;;12.90;10.40;;;;;;;15.79;63.66;102220.50;5014925;28;102392;-85
2021/10/20 10:55:09;;;;;;;12.48;10.40;;;;;;;15.79;63.54;102220.50;5019053;28;102763;-85
2021/10/20 10:57:40;;;;;;;14.48;9.48;;;;;;;15.78;63.43;102229.84;5016829;28;102160;-85
2021/10/20 11:00:10;;;;;;;10.82;9.73;;;;;;;15.77;63.38;102215.31;5013024;28;104142;-82
2021/10/20 11:02:46;;;;;;;13.13;10.73;;;;;;;15.78;63.68;102219.69;5015954;28;102225;-81
2021/10/20 11:05:13;;;;;;;13.52;10.13;;;;;;;15.78;63.29;102203.22;5017736;28;102200;-81